Ajaccio-Napoléon Bonaparte Airport

Airport
ICAO code: 
LFKJ
IATA Code: 
AJA
Summary
ICAO Region: 
EUR
Territory: 
Location: 
Ajaccio, Corse
Serving: 
Ajaccio
Elevation: 
18 ft
Coordinates: 
Aerial View: 
41° 55' 25.093" N, 8° 48' 10.501" E
Metar
Observation
LFKJ 041300Z AUTO 05005KT 020V080 9999 SCT027 BKN037 BKN049 11/09 Q1013 TEMPO 4000 RA BKN015 FEW030TCU OVC040 BECMG 27013KT
Station
Ajaccio
Date/Time
2021-12-04 13:00:00
Wind direction
50°
Wind speed
05 kts
Lowest cloud amount
scattered clouds
Temperature
11°C
Dew point
9°C
Humidity
87%
QNH
1013 hPa
Weather condition
n/a

Runways

Designator Length Width Surface Rops
2/20 2407 45 ASP Yes/Yes
Airport map: 
Aerial View: 

SKYbrary Partners:

Safety knowledge contributed by: